KACB/ACB METAR and TAF weather

Enter ICAO airport designator
Station Type Date Time Source
KACB METAR 2019/06/16 06:36 UTC NOAA

KACB 160636Z AUTO 00000KT 10SM CLR 07/07 A2988 RMK AO2 T00730065


Station Type Date Time Source
KACB Decoded METAR 2019/06/16 06:36 UTC NOAA

Bellaire, Antrim County Airport, MI, United States (KACB) 44-59-18N 085-11-54W
Jun 16, 2019 - 02:36 AM EDT / 2019.06.16 0636 UTC
Wind: Calm:0
Visibility: 10 mile(s):0
Sky conditions: clear
Temperature: 45.1 F (7.3 C)
Dew Point: 43.7 F (6.5 C)
Relative Humidity: 94%
Pressure (altimeter): 29.88 in. Hg (1011 hPa)
ob: KACB 160636Z AUTO 00000KT 10SM CLR 07/07 A2988 RMK AO2 T00730065
cycle: 6

Station Type Date Time Source
KACB TAF UTC NOAA

Error!

Example: see airport list